sensor_id;sensor_type;location;lat;lon;timestamp;pressure;altitude;pressure_sealevel;temperature;humidity
51289;BME280;37372;52.294;5.152;2023-11-19T00:01:22;100594.50;;;11.57;100.00
51289;BME280;37372;52.294;5.152;2023-11-19T00:03:48;100595.97;;;11.48;100.00
51289;BME280;37372;52.294;5.152;2023-11-19T00:06:14;100591.06;;;11.50;100.00
51289;BME280;37372;52.294;5.152;2023-11-19T00:08:42;100587.88;;;11.41;100.00
51289;BME280;37372;52.294;5.152;2023-11-19T00:11:09;100590.47;;;11.48;100.00
51289;BME280;37372;52.294;5.152;2023-11-19T00:13:34;100600.78;;;11.41;100.00
51289;BME280;37372;52.294;5.152;2023-11-19T00:16:00;100600.78;;;11.41;100.00
51289;BME280;37372;52.294;5.152;2023-11-19T00:18:25;100601.09;;;11.44;100.00
51289;BME280;37372;52.294;5.152;2023-11-19T00:20:50;100600.84;;;11.46;100.00
51289;BME280;37372;52.294;5.152;2023-11-19T00:23:16;100603.28;;;11.42;100.00
51289;BME280;37372;52.294;5.152;2023-11-19T00:25:41;100589.53;;;11.42;100.00
51289;BME280;37372;52.294;5.152;2023-11-19T00:28:07;100575.81;;;11.30;100.00
51289;BME280;37372;52.294;5.152;2023-11-19T00:30:33;100564.00;;;11.30;100.00
51289;BME280;37372;52.294;5.152;2023-11-19T00:32:58;100557.44;;;11.31;100.00
51289;BME280;37372;52.294;5.152;2023-11-19T00:35:23;100548.75;;;11.22;100.00
51289;BME280;37372;52.294;5.152;2023-11-19T00:37:49;100553.41;;;11.22;100.00
51289;BME280;37372;52.294;5.152;2023-11-19T00:40:14;100557.47;;;11.19;100.00
51289;BME280;37372;52.294;5.152;2023-11-19T00:42:41;100563.44;;;11.28;100.00
51289;BME280;37372;52.294;5.152;2023-11-19T00:45:06;100571.81;;;11.21;100.00
51289;BME280;37372;52.294;5.152;2023-11-19T00:47:35;100567.28;;;11.15;100.00
51289;BME280;37372;52.294;5.152;2023-11-19T00:50:01;100561.88;;;11.20;100.00
51289;BME280;37372;52.294;5.152;2023-11-19T00:52:27;100568.69;;;11.18;100.00
51289;BME280;37372;52.294;5.152;2023-11-19T00:54:52;100573.94;;;11.07;100.00
51289;BME280;37372;52.294;5.152;2023-11-19T00:57:18;100572.28;;;11.06;100.00
51289;BME280;37372;52.294;5.152;2023-11-19T00:59:43;100568.00;;;11.10;100.00
51289;BME280;37372;52.294;5.152;2023-11-19T01:02:09;100564.41;;;11.10;100.00
51289;BME280;37372;52.294;5.152;2023-11-19T01:04:36;100566.78;;;11.06;100.00
51289;BME280;37372;52.294;5.152;2023-11-19T01:07:02;100559.25;;;11.13;100.00
51289;BME280;37372;52.294;5.152;2023-11-19T01:09:31;100551.84;;;11.14;100.00
51289;BME280;37372;52.294;5.152;2023-11-19T01:12:01;100562.25;;;11.12;100.00
51289;BME280;37372;52.294;5.152;2023-11-19T01:14:27;100547.41;;;11.25;100.00
51289;BME280;37372;52.294;5.152;2023-11-19T01:16:52;100543.03;;;11.12;100.00
51289;BME280;37372;52.294;5.152;2023-11-19T01:19:19;100524.41;;;11.14;100.00
51289;BME280;37372;52.294;5.152;2023-11-19T01:21:45;100534.06;;;11.17;100.00
51289;BME280;37372;52.294;5.152;2023-11-19T01:24:10;100531.59;;;11.15;100.00
51289;BME280;37372;52.294;5.152;2023-11-19T01:26:38;100525.72;;;11.11;100.00
51289;BME280;37372;52.294;5.152;2023-11-19T01:29:04;100527.63;;;11.23;100.00
51289;BME280;37372;52.294;5.152;2023-11-19T01:31:30;100522.00;;;11.18;100.00
51289;BME280;37372;52.294;5.152;2023-11-19T01:33:59;100527.50;;;11.18;100.00
51289;BME280;37372;52.294;5.152;2023-11-19T01:36:24;100536.25;;;11.15;100.00
51289;BME280;37372;52.294;5.152;2023-11-19T01:38:50;100518.56;;;11.10;100.00
51289;BME280;37372;52.294;5.152;2023-11-19T01:41:16;100526.81;;;11.10;100.00
51289;BME280;37372;52.294;5.152;2023-11-19T01:43:41;100529.44;;;11.05;100.00
51289;BME280;37372;52.294;5.152;2023-11-19T01:46:07;100532.19;;;11.05;100.00
51289;BME280;37372;52.294;5.152;2023-11-19T01:48:35;100527.28;;;11.07;100.00
51289;BME280;37372;52.294;5.152;2023-11-19T01:51:03;100534.09;;;11.05;100.00
51289;BME280;37372;52.294;5.152;2023-11-19T01:53:29;100550.13;;;10.96;100.00
51289;BME280;37372;52.294;5.152;2023-11-19T01:55:56;100553.94;;;10.95;100.00
51289;BME280;37372;52.294;5.152;2023-11-19T01:58:22;100542.84;;;10.90;100.00
51289;BME280;37372;52.294;5.152;2023-11-19T02:00:48;100544.50;;;10.91;100.00
51289;BME280;37372;52.294;5.152;2023-11-19T02:03:14;100548.69;;;10.82;100.00
51289;BME280;37372;52.294;5.152;2023-11-19T02:05:39;100532.25;;;10.82;100.00
51289;BME280;37372;52.294;5.152;2023-11-19T02:08:05;100535.81;;;10.82;100.00
51289;BME280;37372;52.294;5.152;2023-11-19T02:10:31;100527.72;;;10.76;100.00
51289;BME280;37372;52.294;5.152;2023-11-19T02:12:58;100542.84;;;10.78;100.00
51289;BME280;37372;52.294;5.152;2023-11-19T02:15:23;100538.69;;;10.76;100.00
51289;BME280;37372;52.294;5.152;2023-11-19T02:17:51;100540.09;;;10.67;100.00
51289;BME280;37372;52.294;5.152;2023-11-19T02:20:17;100546.53;;;10.61;100.00
51289;BME280;37372;52.294;5.152;2023-11-19T02:22:49;100540.94;;;10.67;100.00
51289;BME280;37372;52.294;5.152;2023-11-19T02:25:30;100540.59;;;10.64;100.00
51289;BME280;37372;52.294;5.152;2023-11-19T02:28:02;100539.16;;;10.61;100.00
51289;BME280;37372;52.294;5.152;2023-11-19T02:30:29;100545.72;;;10.60;100.00
51289;BME280;37372;52.294;5.152;2023-11-19T02:32:58;100555.84;;;10.60;100.00
51289;BME280;37372;52.294;5.152;2023-11-19T02:35:27;100552.53;;;10.57;100.00
51289;BME280;37372;52.294;5.152;2023-11-19T02:37:54;100553.81;;;10.55;100.00
51289;BME280;37372;52.294;5.152;2023-11-19T02:40:19;100537.97;;;10.45;100.00
51289;BME280;37372;52.294;5.152;2023-11-19T02:42:44;100537.25;;;10.50;100.00
51289;BME280;37372;52.294;5.152;2023-11-19T02:45:10;100537.25;;;10.50;100.00
51289;BME280;37372;52.294;5.152;2023-11-19T02:47:42;100542.00;;;10.43;100.00
51289;BME280;37372;52.294;5.152;2023-11-19T02:50:09;100528.28;;;10.43;100.00
51289;BME280;37372;52.294;5.152;2023-11-19T02:52:40;100543.31;;;10.40;100.00
51289;BME280;37372;52.294;5.152;2023-11-19T02:55:07;100543.69;;;10.44;100.00
51289;BME280;37372;52.294;5.152;2023-11-19T02:57:35;100534.72;;;10.37;100.00
51289;BME280;37372;52.294;5.152;2023-11-19T03:00:02;100533.44;;;10.39;100.00
51289;BME280;37372;52.294;5.152;2023-11-19T03:02:39;100531.41;;;10.46;100.00
51289;BME280;37372;52.294;5.152;2023-11-19T03:05:09;100529.38;;;10.42;100.00
51289;BME280;37372;52.294;5.152;2023-11-19T03:07:36;100535.34;;;10.39;100.00
51289;BME280;37372;52.294;5.152;2023-11-19T03:10:01;100528.31;;;10.31;100.00
51289;BME280;37372;52.294;5.152;2023-11-19T03:12:27;100548.19;;;10.26;100.00
51289;BME280;37372;52.294;5.152;2023-11-19T03:14:52;100539.72;;;10.28;100.00
51289;BME280;37372;52.294;5.152;2023-11-19T03:17:17;100536.38;;;10.26;100.00
51289;BME280;37372;52.294;5.152;2023-11-19T03:19:43;100546.88;;;10.29;100.00
51289;BME280;37372;52.294;5.152;2023-11-19T03:22:09;100538.50;;;10.24;100.00
51289;BME280;37372;52.294;5.152;2023-11-19T03:24:36;100538.13;;;10.20;100.00
51289;BME280;37372;52.294;5.152;2023-11-19T03:27:01;100531.81;;;10.20;100.00
51289;BME280;37372;52.294;5.152;2023-11-19T03:29:26;100526.78;;;10.17;100.00
51289;BME280;37372;52.294;5.152;2023-11-19T03:31:53;100530.38;;;10.06;100.00
51289;BME280;37372;52.294;5.152;2023-11-19T03:34:19;100526.56;;;10.07;100.00
51289;BME280;37372;52.294;5.152;2023-11-19T03:36:45;100530.81;;;10.02;100.00
51289;BME280;37372;52.294;5.152;2023-11-19T03:39:10;100527.63;;;10.06;100.00
51289;BME280;37372;52.294;5.152;2023-11-19T03:41:36;100524.75;;;10.00;100.00
51289;BME280;37372;52.294;5.152;2023-11-19T03:44:01;100523.09;;;9.99;100.00
51289;BME280;37372;52.294;5.152;2023-11-19T03:46:26;100519.13;;;9.95;100.00
51289;BME280;37372;52.294;5.152;2023-11-19T03:48:52;100531.75;;;9.96;100.00
51289;BME280;37372;52.294;5.152;2023-11-19T03:51:18;100530.59;;;9.92;100.00
51289;BME280;37372;52.294;5.152;2023-11-19T03:53:46;100540.91;;;9.90;100.00
51289;BME280;37372;52.294;5.152;2023-11-19T03:56:12;100542.72;;;9.96;100.00
51289;BME280;37372;52.294;5.152;2023-11-19T03:58:38;100533.56;;;10.02;100.00
51289;BME280;37372;52.294;5.152;2023-11-19T04:01:05;100544.53;;;10.02;100.00
51289;BME280;37372;52.294;5.152;2023-11-19T04:03:31;100540.50;;;10.05;100.00
51289;BME280;37372;52.294;5.152;2023-11-19T04:05:56;100536.81;;;10.11;100.00
51289;BME280;37372;52.294;5.152;2023-11-19T04:08:22;100534.28;;;10.10;100.00
51289;BME280;37372;52.294;5.152;2023-11-19T04:10:47;100532.19;;;10.12;100.00
51289;BME280;37372;52.294;5.152;2023-11-19T04:13:13;100539.31;;;10.13;100.00
51289;BME280;37372;52.294;5.152;2023-11-19T04:15:41;100536.94;;;10.16;100.00
51289;BME280;37372;52.294;5.152;2023-11-19T04:18:08;100551.72;;;10.15;100.00
51289;BME280;37372;52.294;5.152;2023-11-19T04:20:34;100554.81;;;10.19;100.00
51289;BME280;37372;52.294;5.152;2023-11-19T04:23:00;100556.59;;;10.13;100.00
51289;BME280;37372;52.294;5.152;2023-11-19T04:25:25;100553.47;;;10.10;100.00
51289;BME280;37372;52.294;5.152;2023-11-19T04:27:51;100551.38;;;10.12;100.00
51289;BME280;37372;52.294;5.152;2023-11-19T04:30:17;100555.63;;;10.08;100.00
51289;BME280;37372;52.294;5.152;2023-11-19T04:32:46;100550.25;;;10.01;100.00
51289;BME280;37372;52.294;5.152;2023-11-19T04:35:14;100551.78;;;9.97;100.00
51289;BME280;37372;52.294;5.152;2023-11-19T04:37:39;100557.06;;;9.98;100.00
51289;BME280;37372;52.294;5.152;2023-11-19T04:40:05;100558.56;;;9.94;100.00
51289;BME280;37372;52.294;5.152;2023-11-19T04:42:30;100561.44;;;9.99;100.00
51289;BME280;37372;52.294;5.152;2023-11-19T04:44:57;100550.94;;;9.96;100.00
51289;BME280;37372;52.294;5.152;2023-11-19T04:47:23;100552.16;;;10.00;100.00
51289;BME280;37372;52.294;5.152;2023-11-19T04:49:48;100556.81;;;10.00;100.00
51289;BME280;37372;52.294;5.152;2023-11-19T04:52:13;100542.38;;;10.04;100.00
51289;BME280;37372;52.294;5.152;2023-11-19T04:54:42;100537.75;;;10.05;100.00
51289;BME280;37372;52.294;5.152;2023-11-19T04:57:08;100541.44;;;10.11;100.00
51289;BME280;37372;52.294;5.152;2023-11-19T04:59:37;100535.03;;;10.05;100.00
51289;BME280;37372;52.294;5.152;2023-11-19T05:02:04;100550.63;;;10.16;100.00
51289;BME280;37372;52.294;5.152;2023-11-19T05:04:30;100549.22;;;10.14;100.00
51289;BME280;37372;52.294;5.152;2023-11-19T05:06:56;100547.19;;;10.21;100.00
51289;BME280;37372;52.294;5.152;2023-11-19T05:09:21;100548.28;;;10.20;100.00
51289;BME280;37372;52.294;5.152;2023-11-19T05:11:47;100555.03;;;10.17;100.00
51289;BME280;37372;52.294;5.152;2023-11-19T05:14:13;100548.38;;;10.13;100.00
51289;BME280;37372;52.294;5.152;2023-11-19T05:16:41;100541.81;;;10.14;100.00
51289;BME280;37372;52.294;5.152;2023-11-19T05:19:08;100551.13;;;10.13;100.00
51289;BME280;37372;52.294;5.152;2023-11-19T05:21:37;100542.75;;;10.08;100.00
51289;BME280;37372;52.294;5.152;2023-11-19T05:24:03;100543.84;;;10.07;100.00
51289;BME280;37372;52.294;5.152;2023-11-19T05:26:31;100552.88;;;10.08;100.00
51289;BME280;37372;52.294;5.152;2023-11-19T05:28:57;100565.16;;;10.05;100.00
51289;BME280;37372;52.294;5.152;2023-11-19T05:31:22;100553.81;;;10.01;100.00
51289;BME280;37372;52.294;5.152;2023-11-19T05:33:47;100554.63;;;9.90;100.00
51289;BME280;37372;52.294;5.152;2023-11-19T05:36:13;100560.44;;;9.82;100.00
51289;BME280;37372;52.294;5.152;2023-11-19T05:38:39;100570.41;;;9.76;100.00
51289;BME280;37372;52.294;5.152;2023-11-19T05:41:05;100555.34;;;9.86;100.00
51289;BME280;37372;52.294;5.152;2023-11-19T05:43:31;100570.84;;;9.92;100.00
51289;BME280;37372;52.294;5.152;2023-11-19T05:45:57;100564.50;;;9.91;100.00
51289;BME280;37372;52.294;5.152;2023-11-19T05:48:22;100566.19;;;9.92;100.00
51289;BME280;37372;52.294;5.152;2023-11-19T05:50:48;100564.06;;;9.94;100.00
51289;BME280;37372;52.294;5.152;2023-11-19T05:53:15;100566.69;;;10.01;100.00
51289;BME280;37372;52.294;5.152;2023-11-19T05:55:41;100562.28;;;10.00;100.00
51289;BME280;37372;52.294;5.152;2023-11-19T05:58:14;100576.00;;;10.00;100.00
51289;BME280;37372;52.294;5.152;2023-11-19T06:00:43;100566.94;;;9.99;100.00
51289;BME280;37372;52.294;5.152;2023-11-19T06:03:08;100563.38;;;9.99;100.00
51289;BME280;37372;52.294;5.152;2023-11-19T06:05:33;100559.66;;;9.93;100.00
51289;BME280;37372;52.294;5.152;2023-11-19T06:07:59;100556.06;;;9.93;100.00
51289;BME280;37372;52.294;5.152;2023-11-19T06:10:24;100556.66;;;9.95;100.00
51289;BME280;37372;52.294;5.152;2023-11-19T06:13:00;100571.88;;;9.91;100.00
51289;BME280;37372;52.294;5.152;2023-11-19T06:15:26;100570.19;;;9.78;100.00
51289;BME280;37372;52.294;5.152;2023-11-19T06:17:52;100576.78;;;9.89;100.00
51289;BME280;37372;52.294;5.152;2023-11-19T06:20:18;100572.13;;;9.89;100.00
51289;BME280;37372;52.294;5.152;2023-11-19T06:22:45;100564.97;;;9.88;100.00
51289;BME280;37372;52.294;5.152;2023-11-19T06:25:11;100564.00;;;9.83;100.00
51289;BME280;37372;52.294;5.152;2023-11-19T06:27:37;100559.69;;;9.75;100.00
51289;BME280;37372;52.294;5.152;2023-11-19T06:30:02;100561.69;;;9.68;100.00
51289;BME280;37372;52.294;5.152;2023-11-19T06:32:28;100563.97;;;9.71;100.00
51289;BME280;37372;52.294;5.152;2023-11-19T06:34:54;100560.19;;;9.84;100.00
51289;BME280;37372;52.294;5.152;2023-11-19T06:37:20;100561.66;;;9.86;100.00
51289;BME280;37372;52.294;5.152;2023-11-19T06:39:45;100562.34;;;9.82;100.00
51289;BME280;37372;52.294;5.152;2023-11-19T06:42:11;100572.47;;;9.81;100.00
51289;BME280;37372;52.294;5.152;2023-11-19T06:44:36;100573.53;;;9.80;100.00
51289;BME280;37372;52.294;5.152;2023-11-19T06:47:02;100576.59;;;9.72;100.00
51289;BME280;37372;52.294;5.152;2023-11-19T06:49:27;100570.50;;;9.70;100.00
51289;BME280;37372;52.294;5.152;2023-11-19T06:51:53;100573.25;;;9.70;100.00
51289;BME280;37372;52.294;5.152;2023-11-19T06:54:18;100569.91;;;9.68;100.00
51289;BME280;37372;52.294;5.152;2023-11-19T06:56:43;100576.00;;;9.70;100.00
51289;BME280;37372;52.294;5.152;2023-11-19T06:59:09;100576.22;;;9.68;100.00
51289;BME280;37372;52.294;5.152;2023-11-19T07:01:35;100582.94;;;9.72;100.00
51289;BME280;37372;52.294;5.152;2023-11-19T07:04:02;100579.03;;;9.80;100.00
51289;BME280;37372;52.294;5.152;2023-11-19T07:06:34;100583.19;;;9.83;100.00
51289;BME280;37372;52.294;5.152;2023-11-19T07:09:00;100587.16;;;9.87;100.00
51289;BME280;37372;52.294;5.152;2023-11-19T07:11:34;100598.84;;;9.94;100.00
51289;BME280;37372;52.294;5.152;2023-11-19T07:14:00;100594.66;;;9.91;100.00
51289;BME280;37372;52.294;5.152;2023-11-19T07:16:25;100597.78;;;9.95;100.00
51289;BME280;37372;52.294;5.152;2023-11-19T07:18:51;100606.22;;;9.93;100.00
51289;BME280;37372;52.294;5.152;2023-11-19T07:21:16;100606.38;;;9.98;100.00
51289;BME280;37372;52.294;5.152;2023-11-19T07:23:42;100606.13;;;10.00;100.00
51289;BME280;37372;52.294;5.152;2023-11-19T07:26:08;100606.88;;;10.07;100.00
51289;BME280;37372;52.294;5.152;2023-11-19T07:28:34;100610.81;;;10.11;100.00
51289;BME280;37372;52.294;5.152;2023-11-19T07:30:59;100614.84;;;10.09;100.00
51289;BME280;37372;52.294;5.152;2023-11-19T07:33:25;100610.59;;;10.13;100.00
51289;BME280;37372;52.294;5.152;2023-11-19T07:35:51;100610.47;;;10.19;100.00
51289;BME280;37372;52.294;5.152;2023-11-19T07:38:16;100613.41;;;10.24;100.00
51289;BME280;37372;52.294;5.152;2023-11-19T07:40:42;100611.59;;;10.30;100.00
51289;BME280;37372;52.294;5.152;2023-11-19T07:43:08;100612.22;;;10.32;100.00
51289;BME280;37372;52.294;5.152;2023-11-19T07:45:33;100622.69;;;10.35;100.00
51289;BME280;37372;52.294;5.152;2023-11-19T07:47:59;100622.34;;;10.32;100.00
51289;BME280;37372;52.294;5.152;2023-11-19T07:50:26;100628.81;;;10.37;100.00
51289;BME280;37372;52.294;5.152;2023-11-19T07:52:53;100622.00;;;10.40;100.00
51289;BME280;37372;52.294;5.152;2023-11-19T07:55:18;100606.75;;;10.44;100.00
51289;BME280;37372;52.294;5.152;2023-11-19T07:57:44;100608.28;;;10.40;100.00
51289;BME280;37372;52.294;5.152;2023-11-19T08:00:10;100620.44;;;10.32;100.00
51289;BME280;37372;52.294;5.152;2023-11-19T08:02:39;100611.97;;;10.34;100.00
51289;BME280;37372;52.294;5.152;2023-11-19T08:05:05;100610.88;;;10.23;100.00
51289;BME280;37372;52.294;5.152;2023-11-19T08:07:31;100606.44;;;10.22;100.00
51289;BME280;37372;52.294;5.152;2023-11-19T08:09:56;100614.91;;;10.20;100.00
51289;BME280;37372;52.294;5.152;2023-11-19T08:12:21;100608.81;;;10.18;100.00
51289;BME280;37372;52.294;5.152;2023-11-19T08:14:47;100590.91;;;10.16;100.00
51289;BME280;37372;52.294;5.152;2023-11-19T08:17:12;100595.13;;;10.18;100.00
51289;BME280;37372;52.294;5.152;2023-11-19T08:19:38;100601.88;;;10.16;100.00
51289;BME280;37372;52.294;5.152;2023-11-19T08:22:03;100602.38;;;10.13;100.00
51289;BME280;37372;52.294;5.152;2023-11-19T08:24:29;100609.03;;;10.17;100.00
51289;BME280;37372;52.294;5.152;2023-11-19T08:26:54;100614.41;;;10.12;100.00
51289;BME280;37372;52.294;5.152;2023-11-19T08:29:19;100624.97;;;10.08;100.00
51289;BME280;37372;52.294;5.152;2023-11-19T08:31:45;100624.44;;;10.18;100.00
51289;BME280;37372;52.294;5.152;2023-11-19T08:34:11;100614.34;;;10.30;100.00
51289;BME280;37372;52.294;5.152;2023-11-19T08:36:36;100622.38;;;10.43;100.00
51289;BME280;37372;52.294;5.152;2023-11-19T08:39:02;100617.63;;;10.50;100.00
51289;BME280;37372;52.294;5.152;2023-11-19T08:41:28;100614.50;;;10.47;100.00
51289;BME280;37372;52.294;5.152;2023-11-19T08:43:53;100622.38;;;10.43;100.00
51289;BME280;37372;52.294;5.152;2023-11-19T08:46:18;100615.00;;;10.44;100.00
51289;BME280;37372;52.294;5.152;2023-11-19T08:48:45;100625.34;;;10.42;100.00
51289;BME280;37372;52.294;5.152;2023-11-19T08:51:12;100620.97;;;10.52;100.00
51289;BME280;37372;52.294;5.152;2023-11-19T08:53:38;100627.66;;;10.56;100.00
51289;BME280;37372;52.294;5.152;2023-11-19T08:56:03;100623.34;;;10.61;100.00
51289;BME280;37372;52.294;5.152;2023-11-19T08:58:30;100625.28;;;10.72;100.00
51289;BME280;37372;52.294;5.152;2023-11-19T09:00:56;100621.94;;;10.81;100.00
51289;BME280;37372;52.294;5.152;2023-11-19T09:03:21;100627.19;;;10.83;100.00
51289;BME280;37372;52.294;5.152;2023-11-19T09:05:46;100628.03;;;10.83;100.00
51289;BME280;37372;52.294;5.152;2023-11-19T09:08:12;100614.88;;;10.74;100.00
51289;BME280;37372;52.294;5.152;2023-11-19T09:10:37;100621.34;;;10.79;100.00
51289;BME280;37372;52.294;5.152;2023-11-19T09:13:03;100620.88;;;10.82;100.00
51289;BME280;37372;52.294;5.152;2023-11-19T09:15:29;100616.81;;;10.85;100.00
51289;BME280;37372;52.294;5.152;2023-11-19T09:17:54;100610.84;;;10.88;100.00
51289;BME280;37372;52.294;5.152;2023-11-19T09:20:21;100611.44;;;10.90;100.00
51289;BME280;37372;52.294;5.152;2023-11-19T09:22:46;100618.47;;;10.98;100.00
51289;BME280;37372;52.294;5.152;2023-11-19T09:25:12;100621.09;;;11.04;100.00
51289;BME280;37372;52.294;5.152;2023-11-19T09:27:41;100613.94;;;11.15;100.00
51289;BME280;37372;52.294;5.152;2023-11-19T09:30:07;100615.13;;;11.19;100.00
51289;BME280;37372;52.294;5.152;2023-11-19T09:32:33;100620.84;;;11.18;100.00
51289;BME280;37372;52.294;5.152;2023-11-19T09:34:59;100618.81;;;11.13;100.00
51289;BME280;37372;52.294;5.152;2023-11-19T09:37:25;100623.00;;;11.16;100.00
51289;BME280;37372;52.294;5.152;2023-11-19T09:39:50;100615.81;;;11.26;100.00
51289;BME280;37372;52.294;5.152;2023-11-19T09:42:16;100617.97;;;11.24;100.00
51289;BME280;37372;52.294;5.152;2023-11-19T09:44:43;100603.56;;;11.17;100.00
51289;BME280;37372;52.294;5.152;2023-11-19T09:47:11;100603.31;;;11.19;100.00
51289;BME280;37372;52.294;5.152;2023-11-19T09:49:38;100606.88;;;11.19;100.00
51289;BME280;37372;52.294;5.152;2023-11-19T09:52:05;100607.59;;;11.26;100.00
51289;BME280;37372;52.294;5.152;2023-11-19T09:54:30;100600.53;;;11.30;100.00
51289;BME280;37372;52.294;5.152;2023-11-19T09:56:57;100609.63;;;11.31;100.00
51289;BME280;37372;52.294;5.152;2023-11-19T09:59:28;100610.06;;;11.39;100.00
51289;BME280;37372;52.294;5.152;2023-11-19T10:01:54;100604.94;;;11.43;100.00
51289;BME280;37372;52.294;5.152;2023-11-19T10:04:19;100606.25;;;11.41;100.00
51289;BME280;37372;52.294;5.152;2023-11-19T10:06:46;100608.88;;;11.47;100.00
51289;BME280;37372;52.294;5.152;2023-11-19T10:09:12;100606.97;;;11.36;100.00
51289;BME280;37372;52.294;5.152;2023-11-19T10:11:40;100609.16;;;11.34;100.00
51289;BME280;37372;52.294;5.152;2023-11-19T10:14:06;100613.66;;;11.40;100.00
51289;BME280;37372;52.294;5.152;2023-11-19T10:16:34;100614.25;;;11.42;100.00
51289;BME280;37372;52.294;5.152;2023-11-19T10:18:59;100615.19;;;11.59;100.00
51289;BME280;37372;52.294;5.152;2023-11-19T10:21:25;100619.66;;;11.65;100.00
51289;BME280;37372;52.294;5.152;2023-11-19T10:23:54;100615.38;;;11.70;100.00
51289;BME280;37372;52.294;5.152;2023-11-19T10:26:22;100617.16;;;11.76;100.00
51289;BME280;37372;52.294;5.152;2023-11-19T10:28:48;100610.44;;;11.83;100.00
51289;BME280;37372;52.294;5.152;2023-11-19T10:31:17;100604.38;;;11.81;100.00
51289;BME280;37372;52.294;5.152;2023-11-19T10:33:44;100600.06;;;11.85;100.00
51289;BME280;37372;52.294;5.152;2023-11-19T10:36:11;100601.63;;;11.81;100.00
51289;BME280;37372;52.294;5.152;2023-11-19T10:38:38;100622.16;;;11.79;100.00
51289;BME280;37372;52.294;5.152;2023-11-19T10:41:04;100617.63;;;11.84;100.00
51289;BME280;37372;52.294;5.152;2023-11-19T10:43:30;100612.38;;;11.83;100.00
51289;BME280;37372;52.294;5.152;2023-11-19T10:46:16;100599.47;;;11.72;100.00
51289;BME280;37372;52.294;5.152;2023-11-19T10:48:46;100595.06;;;11.71;100.00
51289;BME280;37372;52.294;5.152;2023-11-19T10:51:13;100602.22;;;11.72;100.00
51289;BME280;37372;52.294;5.152;2023-11-19T10:53:42;100610.16;;;11.56;100.00
51289;BME280;37372;52.294;5.152;2023-11-19T10:56:11;100609.56;;;11.54;100.00
51289;BME280;37372;52.294;5.152;2023-11-19T10:58:37;100607.53;;;11.61;100.00
51289;BME280;37372;52.294;5.152;2023-11-19T11:01:13;100609.03;;;11.69;100.00
51289;BME280;37372;52.294;5.152;2023-11-19T11:03:42;100612.72;;;11.86;100.00
51289;BME280;37372;52.294;5.152;2023-11-19T11:06:09;100617.31;;;11.98;100.00
51289;BME280;37372;52.294;5.152;2023-11-19T11:08:37;100611.19;;;12.07;100.00
51289;BME280;37372;52.294;5.152;2023-11-19T11:11:03;100601.81;;;12.20;100.00
51289;BME280;37372;52.294;5.152;2023-11-19T11:13:31;100605.88;;;12.17;100.00
51289;BME280;37372;52.294;5.152;2023-11-19T11:15:57;100600.22;;;12.24;100.00
51289;BME280;37372;52.294;5.152;2023-11-19T11:18:24;100604.66;;;12.25;100.00
51289;BME280;37372;52.294;5.152;2023-11-19T11:21:00;100597.38;;;12.36;100.00
51289;BME280;37372;52.294;5.152;2023-11-19T11:34:33;100600.28;;;12.12;100.00
51289;BME280;37372;52.294;5.152;2023-11-19T11:39:57;100598.03;;;12.09;100.00
51289;BME280;37372;52.294;5.152;2023-11-19T11:42:31;100585.03;;;12.05;100.00
51289;BME280;37372;52.294;5.152;2023-11-19T11:45:05;100594.69;;;12.07;100.00
51289;BME280;37372;52.294;5.152;2023-11-19T11:50:17;100588.31;;;12.18;100.00
51289;BME280;37372;52.294;5.152;2023-11-19T11:55:35;100585.13;;;12.27;100.00
51289;BME280;37372;52.294;5.152;2023-11-19T11:58:10;100583.47;;;12.26;100.00
51289;BME280;37372;52.294;5.152;2023-11-19T12:00:40;100580.88;;;12.36;100.00
51289;BME280;37372;52.294;5.152;2023-11-19T12:03:08;100573.72;;;12.35;100.00
51289;BME280;37372;52.294;5.152;2023-11-19T12:05:43;100579.72;;;12.32;100.00
51289;BME280;37372;52.294;5.152;2023-11-19T12:08:11;100564.00;;;12.44;100.00
51289;BME280;37372;52.294;5.152;2023-11-19T12:10:48;100567.41;;;12.51;100.00
51289;BME280;37372;52.294;5.152;2023-11-19T12:13:14;100563.88;;;12.56;100.00
51289;BME280;37372;52.294;5.152;2023-11-19T12:18:23;100564.22;;;12.59;100.00
51289;BME280;37372;52.294;5.152;2023-11-19T12:20:50;100574.66;;;12.57;100.00
51289;BME280;37372;52.294;5.152;2023-11-19T12:23:16;100565.06;;;12.43;100.00
51289;BME280;37372;52.294;5.152;2023-11-19T12:25:41;100574.38;;;12.42;100.00
51289;BME280;37372;52.294;5.152;2023-11-19T12:28:12;100569.41;;;12.39;100.00
51289;BME280;37372;52.294;5.152;2023-11-19T12:30:39;100572.72;;;12.41;100.00
51289;BME280;37372;52.294;5.152;2023-11-19T12:33:08;100570.97;;;12.35;100.00
51289;BME280;37372;52.294;5.152;2023-11-19T12:35:47;100573.81;;;12.40;100.00
51289;BME280;37372;52.294;5.152;2023-11-19T12:38:23;100576.38;;;12.30;100.00
51289;BME280;37372;52.294;5.152;2023-11-19T12:41:09;100578.75;;;12.38;100.00
51289;BME280;37372;52.294;5.152;2023-11-19T12:43:42;100577.31;;;12.18;100.00
51289;BME280;37372;52.294;5.152;2023-11-19T12:48:43;100583.63;;;12.19;100.00
51289;BME280;37372;52.294;5.152;2023-11-19T12:51:09;100576.88;;;12.27;100.00
51289;BME280;37372;52.294;5.152;2023-11-19T12:53:50;100571.22;;;12.33;100.00
51289;BME280;37372;52.294;5.152;2023-11-19T12:56:20;100576.47;;;12.35;100.00
51289;BME280;37372;52.294;5.152;2023-11-19T12:58:47;100560.28;;;12.22;100.00
51289;BME280;37372;52.294;5.152;2023-11-19T13:01:19;100564.47;;;12.24;100.00
51289;BME280;37372;52.294;5.152;2023-11-19T13:03:46;100562.22;;;12.38;100.00
51289;BME280;37372;52.294;5.152;2023-11-19T13:06:13;100573.91;;;12.45;100.00